createdAt,value
2022-09-27T16:02:03.006Z,9.00
2022-09-27T16:03:37.257Z,4.20
2022-09-27T16:05:08.904Z,7.00
2022-09-27T16:06:42.816Z,5.60
2022-09-27T16:08:14.432Z,3.00
2022-09-27T16:09:46.880Z,5.00
2022-09-27T16:11:18.525Z,5.00
2022-09-27T16:12:51.219Z,7.80
2022-09-27T16:14:23.002Z,6.80
2022-09-27T16:15:54.718Z,6.80
2022-09-27T16:17:26.462Z,6.40
2022-09-27T16:18:58.229Z,5.60
2022-09-27T16:20:31.976Z,11.60
2022-09-27T16:22:05.417Z,13.40
2022-09-27T16:23:37.109Z,14.80
2022-09-27T16:25:08.848Z,19.80
2022-09-27T16:26:40.538Z,25.20
2022-09-27T16:28:12.185Z,22.80
2022-09-27T16:29:44.472Z,26.80
2022-09-27T16:31:16.728Z,25.60
2022-09-27T16:32:48.665Z,27.60
2022-09-27T16:34:20.494Z,31.20
2022-09-27T16:35:52.717Z,33.00
2022-09-27T16:37:24.397Z,33.00
2022-09-27T16:38:56.114Z,34.40
2022-09-27T16:40:28.355Z,34.20
2022-09-27T16:42:00.146Z,41.75
2022-09-27T16:43:32.309Z,45.50
2022-09-27T16:45:10.027Z,53.25
2022-09-27T16:46:46.372Z,57.00
2022-09-27T16:48:18.127Z,56.50
2022-09-27T16:50:08.552Z,62.75
2022-09-27T16:51:58.777Z,66.50
2022-09-27T16:53:31.249Z,66.50
2022-09-27T16:55:02.965Z,76.00
2022-09-27T16:56:35.243Z,76.40
2022-09-27T16:58:08.609Z,75.00
2022-09-27T16:59:40.293Z,81.25
2022-09-27T17:01:12.065Z,83.25
2022-09-27T17:02:47.083Z,191.00
2022-09-27T17:04:18.851Z,114.75
2022-09-27T17:05:50.507Z,116.50
2022-09-27T17:07:22.547Z,117.75
2022-09-27T17:08:54.454Z,100.00
2022-09-27T17:10:26.147Z,98.50
2022-09-27T17:11:57.819Z,104.25
2022-09-27T17:13:29.496Z,98.25
2022-09-27T17:15:01.239Z,94.50
2022-09-27T17:16:33.042Z,99.00
2022-09-27T17:18:04.841Z,100.75
2022-09-27T17:19:38.191Z,99.50
2022-09-27T17:21:10.188Z,98.50
2022-09-27T17:22:41.837Z,98.50
2022-09-27T17:24:13.630Z,99.00
2022-09-27T17:25:45.339Z,100.25
2022-09-27T17:27:17.462Z,95.00
2022-09-27T17:28:49.982Z,100.75
2022-09-27T17:30:21.665Z,106.00
2022-09-27T17:31:53.442Z,104.75
2022-09-27T17:33:25.185Z,105.75
2022-09-27T17:34:57.366Z,100.75
2022-09-27T17:36:31.141Z,100.25
2022-09-27T17:38:02.789Z,94.00
2022-09-27T17:39:34.512Z,105.25
2022-09-27T17:41:10.408Z,106.75
2022-09-27T17:42:42.264Z,102.00
2022-09-27T17:44:14.874Z,101.25
2022-09-27T17:45:46.683Z,97.00
2022-09-27T17:47:36.835Z,107.00
2022-09-27T17:49:28.050Z,104.75
2022-09-27T17:51:00.059Z,104.25
2022-09-27T17:52:33.579Z,108.25
2022-09-27T17:54:07.317Z,107.75
2022-09-27T17:55:39.005Z,111.25
2022-09-27T17:57:10.952Z,111.25
2022-09-27T17:58:48.978Z,111.00
2022-09-27T18:00:21.157Z,111.00
2022-09-27T18:01:59.281Z,114.00
2022-09-27T18:03:31.981Z,114.00
2022-09-27T18:05:03.708Z,105.25
2022-09-27T18:06:44.096Z,125.25
2022-09-27T18:08:15.819Z,114.00
2022-09-27T18:09:47.702Z,117.25
2022-09-27T18:11:28.594Z,116.50
2022-09-27T18:13:01.371Z,109.25
2022-09-27T18:14:33.651Z,108.00
2022-09-27T18:16:06.206Z,102.75
2022-09-27T18:17:37.903Z,112.25
2022-09-27T18:19:15.217Z,115.00
2022-09-27T18:20:46.878Z,110.50
2022-09-27T18:22:18.544Z,110.25
2022-09-27T18:23:53.967Z,108.75
2022-09-27T18:25:25.607Z,105.75
2022-09-27T18:26:59.725Z,110.75
2022-09-27T18:28:31.860Z,111.25
2022-09-27T18:30:03.909Z,115.00
2022-09-27T18:31:36.182Z,111.75
2022-09-27T18:33:07.888Z,117.50
2022-09-27T18:34:40.343Z,118.50
2022-09-27T18:36:19.511Z,115.75
2022-09-27T18:37:51.160Z,118.00
2022-09-27T18:39:22.833Z,130.75
2022-09-27T18:40:57.614Z,118.25
2022-09-27T18:42:29.449Z,122.75
2022-09-27T18:44:04.952Z,120.25
2022-09-27T18:45:38.368Z,119.25
2022-09-27T18:47:10.171Z,127.25
2022-09-27T18:48:42.098Z,135.00
2022-09-27T18:50:13.816Z,135.75
2022-09-27T18:51:47.066Z,118.75
2022-09-27T18:53:18.757Z,129.50
2022-09-27T18:54:50.986Z,118.50
2022-09-27T18:56:25.128Z,124.00
2022-09-27T18:57:56.900Z,128.50
2022-09-27T18:59:28.900Z,126.75
2022-09-27T19:01:04.280Z,118.75
2022-09-27T19:02:36.005Z,122.00
2022-09-27T19:04:09.196Z,128.50
2022-09-27T19:05:40.924Z,124.75
2022-09-27T19:07:12.723Z,124.50
2022-09-27T19:08:44.483Z,120.00
2022-09-27T19:10:17.329Z,126.50
2022-09-27T19:11:50.263Z,125.25
2022-09-27T19:13:25.338Z,118.25
2022-09-27T19:15:00.108Z,122.75
2022-09-27T19:16:31.933Z,120.25
2022-09-27T19:18:04.231Z,114.50
2022-09-27T19:19:35.871Z,121.25
2022-09-27T19:21:11.966Z,113.25
2022-09-27T19:22:43.619Z,109.75
2022-09-27T19:24:15.732Z,114.00
2022-09-27T19:25:47.650Z,114.25
2022-09-27T19:27:19.378Z,132.50
2022-09-27T19:28:51.644Z,129.00
2022-09-27T19:30:23.411Z,111.75
2022-09-27T19:31:55.113Z,107.50
2022-09-27T19:33:26.765Z,107.00
2022-09-27T19:34:58.527Z,104.50
2022-09-27T19:36:30.444Z,105.00
2022-09-27T19:38:02.183Z,99.50
2022-09-27T19:39:33.853Z,93.50
2022-09-27T19:41:06.995Z,97.25
2022-09-27T19:42:38.676Z,103.25
2022-09-27T19:44:10.439Z,101.25
2022-09-27T19:45:42.141Z,97.50
2022-09-27T19:47:13.824Z,98.00
2022-09-27T19:48:45.919Z,101.00
2022-09-27T19:50:17.671Z,94.25
2022-09-27T19:51:49.336Z,99.75
2022-09-27T19:53:21.682Z,92.75
2022-09-27T19:54:53.459Z,95.00
2022-09-27T19:56:26.747Z,106.25
2022-09-27T19:57:59.864Z,156.67
2022-09-27T19:59:33.011Z,147.67
2022-09-27T20:01:26.812Z,129.00
2022-09-27T20:02:59.096Z,111.00
2022-09-27T20:04:31.451Z,116.00
2022-09-27T20:06:04.583Z,104.75
2022-09-27T20:07:36.771Z,96.25
2022-09-27T20:09:09.251Z,96.00
2022-09-27T20:10:41.011Z,101.75
2022-09-27T20:12:13.173Z,96.25
2022-09-27T20:13:45.103Z,102.75
2022-09-27T20:15:19.057Z,103.75
2022-09-27T20:16:50.829Z,108.75
2022-09-27T20:18:23.675Z,98.75
2022-09-27T20:19:55.330Z,98.00
2022-09-27T20:21:28.950Z,104.50
2022-09-27T20:23:00.603Z,108.00
2022-09-27T20:24:33.339Z,100.50
2022-09-27T20:26:08.063Z,105.50
2022-09-27T20:27:39.894Z,102.25
2022-09-27T20:29:11.567Z,110.25
2022-09-27T20:30:43.395Z,109.00
2022-09-27T20:32:27.447Z,106.25
2022-09-27T20:34:00.711Z,97.00
2022-09-27T20:35:32.424Z,101.50
2022-09-27T20:37:04.115Z,106.50
2022-09-27T20:38:35.824Z,105.00
2022-09-27T20:40:07.881Z,106.25
2022-09-27T20:41:46.355Z,103.00
2022-09-27T20:43:18.008Z,104.50
2022-09-27T20:44:53.930Z,107.75
2022-09-27T20:46:26.218Z,103.00
2022-09-27T20:47:57.986Z,116.75
2022-09-27T20:49:29.631Z,117.50
2022-09-27T20:51:04.785Z,127.33
2022-09-27T20:52:36.729Z,132.67
2022-09-27T20:54:09.769Z,126.25
2022-09-27T20:55:41.652Z,120.00
2022-09-27T20:57:14.399Z,121.00
2022-09-27T20:58:47.087Z,103.50
2022-09-27T21:00:18.957Z,111.50
2022-09-27T21:01:51.399Z,114.25
2022-09-27T21:03:23.131Z,111.50
2022-09-27T21:04:54.786Z,114.00
2022-09-27T21:06:27.270Z,110.25
2022-09-27T21:07:58.915Z,111.25
2022-09-27T21:09:30.649Z,108.75
2022-09-27T21:11:10.226Z,100.50
2022-09-27T21:12:41.908Z,110.25
2022-09-27T21:14:13.721Z,102.00
2022-09-27T21:15:45.544Z,104.00
2022-09-27T21:17:19.842Z,94.75
2022-09-27T21:18:52.325Z,107.25
2022-09-27T21:20:24.118Z,99.25
2022-09-27T21:21:57.831Z,107.75
2022-09-27T21:23:29.986Z,93.50
2022-09-27T21:25:01.696Z,99.75
2022-09-27T21:26:33.495Z,96.00
2022-09-27T21:28:05.557Z,93.25
2022-09-27T21:29:37.238Z,89.00
2022-09-27T21:31:11.330Z,98.25
2022-09-27T21:32:43.524Z,90.75
2022-09-27T21:34:15.201Z,86.00
2022-09-27T21:35:50.032Z,87.75
2022-09-27T21:37:22.621Z,86.75
2022-09-27T21:38:54.503Z,84.50
2022-09-27T21:40:27.557Z,85.50
2022-09-27T21:41:59.338Z,86.00
2022-09-27T21:43:35.137Z,81.25
2022-09-27T21:45:07.264Z,82.40
2022-09-27T21:46:39.869Z,77.40
2022-09-27T21:48:11.670Z,75.25
2022-09-27T21:49:43.421Z,73.80
2022-09-27T21:51:16.149Z,96.25
2022-09-27T21:52:47.790Z,80.40
2022-09-27T21:54:19.503Z,65.75
2022-09-27T21:55:55.278Z,63.25
2022-09-27T21:57:52.265Z,60.75
2022-09-27T21:59:23.961Z,58.50
2022-09-27T22:00:55.654Z,52.00
2022-09-27T22:02:27.523Z,54.00
2022-09-27T22:03:59.905Z,54.25
2022-09-27T22:05:31.651Z,54.25
2022-09-27T22:07:03.489Z,55.75
2022-09-27T22:08:35.164Z,57.25
2022-09-27T22:10:07.245Z,56.75
2022-09-27T22:11:40.136Z,57.75
2022-09-27T22:13:12.692Z,55.25
2022-09-27T22:14:44.427Z,58.75
2022-09-27T22:16:17.176Z,61.50
2022-09-27T22:17:48.927Z,68.00
2022-09-27T22:19:20.931Z,63.25
2022-09-27T22:20:52.556Z,67.25
2022-09-27T22:22:24.295Z,64.00
2022-09-27T22:23:57.003Z,69.25
2022-09-27T22:25:29.970Z,67.75
2022-09-27T22:27:01.719Z,70.25
2022-09-27T22:28:33.449Z,68.00
2022-09-27T22:30:05.703Z,66.50
2022-09-27T22:31:37.586Z,70.25
2022-09-27T22:33:09.306Z,70.50
2022-09-27T22:34:40.944Z,70.75
